Time;durP1;ratioP1;P1;durP2;ratioP2;P2;SDS_P1;SDS_P2;PMS_P1;PMS_P2;Temp;Humidity;BMP_temperature;BMP_pressure;BME280_temperature;BME280_humidity;BME280_pressure;Samples;Min_cycle;Max_cycle;Signal;HPM_P1;HPM_P2
2022/11/15 00:01:16;;;;;;;4.43;1.88;;;;;;;;;;6122061;23;20470;-76
2022/11/15 00:03:45;;;;;;;1.60;1.13;;;;;;;;;;6123275;23;20072;-76
2022/11/15 00:06:14;;;;;;;2.38;0.98;;;;;;;;;;6124139;23;20029;-76
2022/11/15 00:08:42;;;;;;;1.80;1.02;;;;;;;;;;6122616;23;20025;-76
2022/11/15 00:11:12;;;;;;;1.38;1.23;;;;;;;;;;6123590;23;20073;-76
2022/11/15 00:13:40;;;;;;;0.93;0.88;;;;;;;;;;6123079;23;20380;-75
2022/11/15 00:16:08;;;;;;;1.40;0.90;;;;;;;;;;6122449;23;20018;-76
2022/11/15 00:18:39;;;;;;;0.98;0.98;;;;;;;;;;6123104;23;20018;-76
2022/11/15 00:21:08;;;;;;;1.35;0.73;;;;;;;;;;6123416;23;20021;-76
2022/11/15 00:23:37;;;;;;;0.52;0.43;;;;;;;;;;6123135;23;20040;-76
2022/11/15 00:26:05;;;;;;;3.90;1.17;;;;;;;;;;6123405;23;20026;-76
2022/11/15 00:28:33;;;;;;;0.68;0.68;;;;;;;;;;6122235;23;20324;-76
2022/11/15 00:31:02;;;;;;;1.63;1.27;;;;;;;;;;6122509;23;20444;-76
2022/11/15 00:33:31;;;;;;;1.40;1.15;;;;;;;;;;6123499;23;20029;-75
2022/11/15 00:36:05;;;;;;;2.08;1.13;;;;;;;;;;6123688;23;20022;-76
2022/11/15 00:38:33;;;;;;;1.00;0.95;;;;;;;;;;6122399;23;20423;-75
2022/11/15 00:41:02;;;;;;;1.13;0.88;;;;;;;;;;6123748;23;20030;-76
2022/11/15 00:43:36;;;;;;;0.88;0.88;;;;;;;;;;6123100;23;20022;-76
2022/11/15 00:46:04;;;;;;;1.50;1.00;;;;;;;;;;6124200;23;20026;-75
2022/11/15 00:48:33;;;;;;;1.90;1.42;;;;;;;;;;6123275;23;20022;-76
2022/11/15 00:51:01;;;;;;;4.65;1.15;;;;;;;;;;6122653;23;20021;-76
2022/11/15 00:53:30;;;;;;;3.33;1.17;;;;;;;;;;6122181;23;20025;-76
2022/11/15 00:55:59;;;;;;;1.65;1.15;;;;;;;;;;6124305;23;20077;-76
2022/11/15 00:58:28;;;;;;;1.92;0.75;;;;;;;;;;6123527;23;20030;-75
2022/11/15 01:00:56;;;;;;;0.70;0.70;;;;;;;;;;6124673;23;20347;-76
2022/11/15 01:03:24;;;;;;;1.13;0.82;;;;;;;;;;6124347;23;20418;-76
2022/11/15 01:05:52;;;;;;;1.25;1.15;;;;;;;;;;6125568;23;20049;-75
2022/11/15 01:08:21;;;;;;;1.73;0.57;;;;;;;;;;6124734;23;20333;-75
2022/11/15 01:10:50;;;;;;;0.85;0.47;;;;;;;;;;6124565;23;20021;-75
2022/11/15 01:13:18;;;;;;;4.38;1.40;;;;;;;;;;6124434;23;20062;-75
2022/11/15 01:15:47;;;;;;;1.13;0.98;;;;;;;;;;6123244;23;20025;-74
2022/11/15 01:18:15;;;;;;;0.70;0.70;;;;;;;;;;6125529;23;20022;-75
2022/11/15 01:20:43;;;;;;;1.77;1.67;;;;;;;;;;6123786;23;20022;-75
2022/11/15 01:23:12;;;;;;;0.45;0.35;;;;;;;;;;6124456;23;20029;-75
2022/11/15 01:25:40;;;;;;;0.30;0.30;;;;;;;;;;6124590;23;20033;-75
2022/11/15 01:28:10;;;;;;;1.92;0.60;;;;;;;;;;6125436;23;20030;-75
2022/11/15 01:30:38;;;;;;;0.80;0.77;;;;;;;;;;6123645;23;20029;-75
2022/11/15 01:33:06;;;;;;;1.13;1.00;;;;;;;;;;6124956;23;20022;-75
2022/11/15 01:35:34;;;;;;;2.05;1.17;;;;;;;;;;6124500;23;20018;-75
2022/11/15 01:38:02;;;;;;;2.33;1.67;;;;;;;;;;6124577;23;20018;-75
2022/11/15 01:40:31;;;;;;;1.65;1.30;;;;;;;;;;6122935;23;20069;-75
2022/11/15 01:42:59;;;;;;;1.25;1.00;;;;;;;;;;6124807;23;20030;-75
2022/11/15 01:45:28;;;;;;;3.60;0.40;;;;;;;;;;6125196;23;20022;-75
2022/11/15 01:47:57;;;;;;;0.43;0.43;;;;;;;;;;6124485;23;20081;-75
2022/11/15 01:50:28;;;;;;;0.82;0.82;;;;;;;;;;6124663;23;20026;-75
2022/11/15 01:52:56;;;;;;;1.70;1.08;;;;;;;;;;6097174;23;20451;-75
2022/11/15 01:55:27;;;;;;;0.40;0.40;;;;;;;;;;6124507;23;20415;-75
2022/11/15 01:57:56;;;;;;;0.30;0.30;;;;;;;;;;6124428;23;20033;-75
2022/11/15 02:00:24;;;;;;;0.70;0.70;;;;;;;;;;6123080;23;20100;-75
2022/11/15 02:02:54;;;;;;;0.40;0.40;;;;;;;;;;6124784;23;20451;-75
2022/11/15 02:05:22;;;;;;;0.75;0.50;;;;;;;;;;6123958;23;20029;-75
2022/11/15 02:07:51;;;;;;;0.82;0.52;;;;;;;;;;6124857;23;20030;-75
2022/11/15 02:10:20;;;;;;;1.42;0.82;;;;;;;;;;6121979;23;20456;-75
2022/11/15 02:12:49;;;;;;;1.27;0.98;;;;;;;;;;6124230;23;20026;-75
2022/11/15 02:15:17;;;;;;;1.15;0.93;;;;;;;;;;6124077;23;20026;-75
2022/11/15 02:17:54;;;;;;;0.95;0.95;;;;;;;;;;6124791;23;20530;-75
2022/11/15 02:20:32;;;;;;;0.60;0.57;;;;;;;;;;6123010;23;20025;-75
2022/11/15 02:23:11;;;;;;;0.70;0.70;;;;;;;;;;6074522;23;20093;-75
2022/11/15 02:25:40;;;;;;;0.90;0.63;;;;;;;;;;6124984;23;20018;-75
2022/11/15 02:28:29;;;;;;;1.17;0.68;;;;;;;;;;6124166;23;20392;-74
2022/11/15 02:31:02;;;;;;;1.05;0.77;;;;;;;;;;6123696;23;20018;-75
2022/11/15 02:33:36;;;;;;;2.47;0.88;;;;;;;;;;6124184;23;20371;-75
2022/11/15 02:36:08;;;;;;;1.33;1.23;;;;;;;;;;6124804;23;20022;-75
2022/11/15 02:38:42;;;;;;;1.23;1.10;;;;;;;;;;6123163;23;20032;-75
2022/11/15 02:41:12;;;;;;;1.20;0.87;;;;;;;;;;6123362;23;20018;-75
2022/11/15 02:43:58;;;;;;;1.52;1.40;;;;;;;;;;6123239;23;20255;-74
2022/11/15 02:49:14;;;;;;;0.28;0.28;;;;;;;;;;6122659;23;20018;-75
2022/11/15 02:51:44;;;;;;;1.15;1.05;;;;;;;;;;6122958;23;20022;-75
2022/11/15 02:54:14;;;;;;;1.58;0.82;;;;;;;;;;6124829;23;20474;-74
2022/11/15 02:56:43;;;;;;;0.40;0.40;;;;;;;;;;6123970;23;20079;-74
2022/11/15 02:59:19;;;;;;;0.40;0.40;;;;;;;;;;6124169;23;20018;-75
2022/11/15 03:01:53;;;;;;;1.45;0.63;;;;;;;;;;6119658;23;20026;-74
2022/11/15 03:04:29;;;;;;;0.45;0.45;;;;;;;;;;6125013;23;20459;-74
2022/11/15 03:07:01;;;;;;;1.42;0.88;;;;;;;;;;6124213;23;20026;-75
2022/11/15 03:09:34;;;;;;;0.80;0.80;;;;;;;;;;6123237;23;20022;-75
2022/11/15 03:12:12;;;;;;;0.40;0.40;;;;;;;;;;6123517;23;20026;-74
2022/11/15 03:14:44;;;;;;;0.65;0.38;;;;;;;;;;6124769;23;20100;-74
2022/11/15 03:17:17;;;;;;;0.60;0.60;;;;;;;;;;6123194;23;20470;-74
2022/11/15 03:19:46;;;;;;;0.10;0.10;;;;;;;;;;6124421;23;20030;-75
2022/11/15 03:22:17;;;;;;;0.88;0.75;;;;;;;;;;6120650;23;20026;-74
2022/11/15 03:24:45;;;;;;;1.20;0.98;;;;;;;;;;6122267;23;20074;-75
2022/11/15 03:27:15;;;;;;;0.40;0.40;;;;;;;;;;6123570;23;20073;-75
2022/11/15 03:29:45;;;;;;;0.70;0.70;;;;;;;;;;6122269;23;20018;-74
2022/11/15 03:32:17;;;;;;;0.57;0.57;;;;;;;;;;6123343;23;20397;-74
2022/11/15 03:34:48;;;;;;;0.35;0.35;;;;;;;;;;6123188;23;20030;-74
2022/11/15 03:37:17;;;;;;;0.47;0.47;;;;;;;;;;6123901;23;20030;-74
2022/11/15 03:39:45;;;;;;;0.50;0.45;;;;;;;;;;6121294;23;20018;-74
2022/11/15 03:42:19;;;;;;;0.38;0.25;;;;;;;;;;6118861;23;20022;-74
2022/11/15 03:44:50;;;;;;;0.40;0.40;;;;;;;;;;6122311;23;20434;-74
2022/11/15 03:47:22;;;;;;;1.25;0.68;;;;;;;;;;6122539;23;20128;-74
2022/11/15 03:49:53;;;;;;;1.58;1.23;;;;;;;;;;6122161;23;20022;-74
2022/11/15 03:52:21;;;;;;;0.75;0.70;;;;;;;;;;6121378;23;20030;-74
2022/11/15 03:54:51;;;;;;;1.38;0.90;;;;;;;;;;6123328;23;20018;-74
2022/11/15 03:57:19;;;;;;;0.30;0.30;;;;;;;;;;6123649;23;20022;-75
2022/11/15 03:59:47;;;;;;;0.90;0.60;;;;;;;;;;6123554;23;20475;-74
2022/11/15 04:02:16;;;;;;;0.50;0.50;;;;;;;;;;6122924;23;20022;-75
2022/11/15 04:04:45;;;;;;;2.17;0.77;;;;;;;;;;6123623;23;20025;-74
2022/11/15 04:07:14;;;;;;;0.70;0.70;;;;;;;;;;6123662;23;20029;-74
2022/11/15 04:12:31;;;;;;;1.65;1.20;;;;;;;;;;6121844;23;20426;-74
2022/11/15 04:17:45;;;;;;;0.35;0.35;;;;;;;;;;6122578;23;19920;-74
2022/11/15 04:25:51;;;;;;;0.75;0.73;;;;;;;;;;6123540;23;20073;-74
2022/11/15 04:28:19;;;;;;;0.77;0.65;;;;;;;;;;6123254;23;20026;-75
2022/11/15 04:30:48;;;;;;;4.20;0.63;;;;;;;;;;6122985;23;20479;-74
2022/11/15 04:33:16;;;;;;;0.30;0.30;;;;;;;;;;6124753;23;20022;-74
2022/11/15 04:37:11;;;;;;;0.30;0.30;;;;;;;;;;6126689;23;20053;-74
2022/11/15 04:38:34;;;;;;;0.43;0.43;;;;;;;;;;6125360;23;20029;-75
2022/11/15 04:41:02;;;;;;;0.50;0.45;;;;;;;;;;6126042;23;20018;-75
2022/11/15 04:43:31;;;;;;;1.02;0.90;;;;;;;;;;6125754;23;20025;-74
2022/11/15 04:45:59;;;;;;;0.63;0.55;;;;;;;;;;6126141;23;20132;-75
2022/11/15 04:48:28;;;;;;;1.30;0.50;;;;;;;;;;6125982;23;20025;-74
2022/11/15 04:50:57;;;;;;;1.08;0.43;;;;;;;;;;6125856;23;20018;-74
2022/11/15 04:53:25;;;;;;;0.73;0.60;;;;;;;;;;6126400;23;20018;-74
2022/11/15 04:55:54;;;;;;;0.30;0.30;;;;;;;;;;6125926;23;20472;-74
2022/11/15 04:58:22;;;;;;;0.65;0.45;;;;;;;;;;6126032;23;20026;-74
2022/11/15 05:00:50;;;;;;;2.33;1.08;;;;;;;;;;6126270;23;20073;-74
2022/11/15 05:06:06;;;;;;;0.80;0.40;;;;;;;;;;6126554;23;20451;-75
2022/11/15 05:08:35;;;;;;;0.85;0.85;;;;;;;;;;6126128;23;20021;-74
2022/11/15 05:11:03;;;;;;;2.53;1.05;;;;;;;;;;6124225;23;20014;-74
2022/11/15 05:13:31;;;;;;;0.32;0.32;;;;;;;;;;6125276;23;20459;-74
2022/11/15 05:16:00;;;;;;;0.75;0.30;;;;;;;;;;6126347;23;20033;-74
2022/11/15 05:18:28;;;;;;;0.45;0.45;;;;;;;;;;6114127;23;20033;-74
2022/11/15 05:20:56;;;;;;;2.05;0.80;;;;;;;;;;6125971;23;20474;-74
2022/11/15 05:23:26;;;;;;;0.35;0.35;;;;;;;;;;6125540;23;20029;-74
2022/11/15 05:25:54;;;;;;;0.20;0.20;;;;;;;;;;6125648;23;20033;-73
2022/11/15 05:28:22;;;;;;;0.30;0.30;;;;;;;;;;6126614;23;20026;-74
2022/11/15 05:30:51;;;;;;;0.45;0.45;;;;;;;;;;6125257;23;20022;-74
2022/11/15 05:33:19;;;;;;;0.88;0.45;;;;;;;;;;6126611;23;20073;-73
2022/11/15 05:35:48;;;;;;;1.05;1.00;;;;;;;;;;6124823;23;20021;-73
2022/11/15 05:38:16;;;;;;;0.40;0.40;;;;;;;;;;6125544;23;20022;-74
2022/11/15 05:40:46;;;;;;;1.00;0.50;;;;;;;;;;6125124;23;20026;-74
2022/11/15 05:43:14;;;;;;;0.60;0.60;;;;;;;;;;6125260;23;20171;-74
2022/11/15 05:45:43;;;;;;;0.40;0.40;;;;;;;;;;6123169;23;20032;-74
2022/11/15 05:48:11;;;;;;;0.50;0.50;;;;;;;;;;6122631;23;20458;-74
2022/11/15 05:50:40;;;;;;;0.57;0.38;;;;;;;;;;6123111;23;20022;-73
2022/11/15 05:53:09;;;;;;;0.40;0.40;;;;;;;;;;6122949;23;20068;-74
2022/11/15 05:55:38;;;;;;;1.50;0.57;;;;;;;;;;6123958;23;20025;-74
2022/11/15 05:58:08;;;;;;;0.47;0.47;;;;;;;;;;6123852;23;20029;-74
2022/11/15 06:00:37;;;;;;;0.50;0.50;;;;;;;;;;6123468;23;20055;-73
2022/11/15 06:03:05;;;;;;;0.20;0.20;;;;;;;;;;6123701;23;20022;-73
2022/11/15 06:05:33;;;;;;;0.28;0.28;;;;;;;;;;6121575;23;20022;-74
2022/11/15 06:08:01;;;;;;;0.25;0.25;;;;;;;;;;6123627;23;20105;-73
2022/11/15 06:10:30;;;;;;;0.50;0.50;;;;;;;;;;6122724;23;20056;-73
2022/11/15 06:12:58;;;;;;;0.60;0.60;;;;;;;;;;6123613;23;20025;-74
2022/11/15 06:15:28;;;;;;;0.20;0.20;;;;;;;;;;6122491;23;20105;-74
2022/11/15 06:17:58;;;;;;;0.32;0.32;;;;;;;;;;6122252;23;20452;-74
2022/11/15 06:20:26;;;;;;;0.22;0.22;;;;;;;;;;6121123;23;20022;-73
2022/11/15 06:22:57;;;;;;;0.30;0.30;;;;;;;;;;6124346;23;20022;-74
2022/11/15 06:25:26;;;;;;;0.60;0.60;;;;;;;;;;6122858;23;20347;-74
2022/11/15 06:27:55;;;;;;;0.60;0.60;;;;;;;;;;6123213;23;20124;-74
2022/11/15 06:30:24;;;;;;;0.30;0.30;;;;;;;;;;6123242;23;20033;-74
2022/11/15 06:32:59;;;;;;;0.30;0.30;;;;;;;;;;6124493;23;20021;-74
2022/11/15 06:35:27;;;;;;;0.88;0.88;;;;;;;;;;6123555;23;20082;-74
2022/11/15 06:37:56;;;;;;;0.30;0.30;;;;;;;;;;6120920;23;20018;-73
2022/11/15 06:40:24;;;;;;;0.73;0.73;;;;;;;;;;6121542;23;20017;-74
2022/11/15 06:42:52;;;;;;;1.15;0.63;;;;;;;;;;6122753;23;20045;-73
2022/11/15 06:45:21;;;;;;;0.43;0.43;;;;;;;;;;6122641;23;20033;-74
2022/11/15 06:47:49;;;;;;;0.50;0.50;;;;;;;;;;6123511;23;20097;-74
2022/11/15 06:50:18;;;;;;;1.35;0.60;;;;;;;;;;6121301;23;20467;-73
2022/11/15 06:52:47;;;;;;;0.45;0.35;;;;;;;;;;6122904;23;20466;-74
2022/11/15 06:55:15;;;;;;;0.57;0.50;;;;;;;;;;6123976;23;20022;-74
2022/11/15 06:57:48;;;;;;;0.28;0.28;;;;;;;;;;6123459;23;20028;-74
2022/11/15 07:00:18;;;;;;;0.10;0.10;;;;;;;;;;6123847;23;20038;-74
2022/11/15 07:02:46;;;;;;;2.55;0.68;;;;;;;;;;6123793;23;20490;-74
2022/11/15 07:05:15;;;;;;;0.68;0.45;;;;;;;;;;6123237;23;20022;-74
2022/11/15 07:07:45;;;;;;;0.40;0.40;;;;;;;;;;6122025;23;20110;-74
2022/11/15 07:10:13;;;;;;;1.40;1.02;;;;;;;;;;6123593;23;20033;-74
2022/11/15 07:12:41;;;;;;;0.52;0.52;;;;;;;;;;6120187;23;20396;-73
2022/11/15 07:15:10;;;;;;;0.10;0.10;;;;;;;;;;6120638;23;20022;-74
2022/11/15 07:17:38;;;;;;;0.85;0.82;;;;;;;;;;6121019;23;20029;-74
2022/11/15 07:20:07;;;;;;;1.08;0.95;;;;;;;;;;6111219;23;20022;-74
2022/11/15 07:22:36;;;;;;;0.68;0.68;;;;;;;;;;6121718;23;20477;-73
2022/11/15 07:25:06;;;;;;;0.82;0.47;;;;;;;;;;6120625;23;20517;-74
2022/11/15 07:27:34;;;;;;;1.45;1.08;;;;;;;;;;6122544;23;20506;-74
2022/11/15 07:30:02;;;;;;;0.52;0.52;;;;;;;;;;6124273;23;20084;-74
2022/11/15 07:32:31;;;;;;;0.75;0.75;;;;;;;;;;6123481;23;20029;-74
2022/11/15 07:34:59;;;;;;;0.43;0.40;;;;;;;;;;6124732;23;20018;-74
2022/11/15 07:37:27;;;;;;;0.32;0.32;;;;;;;;;;6123214;23;20033;-74
2022/11/15 07:39:56;;;;;;;1.75;0.45;;;;;;;;;;6123949;23;20029;-74
2022/11/15 07:45:12;;;;;;;0.20;0.20;;;;;;;;;;6122779;23;20022;-74
2022/11/15 07:47:40;;;;;;;0.47;0.47;;;;;;;;;;6123634;23;20018;-74
2022/11/15 07:50:09;;;;;;;0.68;0.68;;;;;;;;;;6121807;23;20109;-74
2022/11/15 07:52:37;;;;;;;0.80;0.68;;;;;;;;;;6120963;23;20030;-74
2022/11/15 07:55:06;;;;;;;1.98;1.00;;;;;;;;;;6124065;23;20028;-74
2022/11/15 07:57:35;;;;;;;1.38;0.95;;;;;;;;;;6123009;23;20026;-74
2022/11/15 08:00:04;;;;;;;1.17;0.90;;;;;;;;;;6122701;23;20033;-73
2022/11/15 08:02:33;;;;;;;0.40;0.40;;;;;;;;;;6123348;23;20065;-74
2022/11/15 08:05:01;;;;;;;1.40;0.90;;;;;;;;;;6123141;23;20026;-73
2022/11/15 08:07:31;;;;;;;0.32;0.32;;;;;;;;;;6123329;23;20557;-74
2022/11/15 08:10:00;;;;;;;0.40;0.40;;;;;;;;;;6123221;23;20033;-74
2022/11/15 08:12:29;;;;;;;4.68;0.93;;;;;;;;;;6123121;23;20103;-74
2022/11/15 08:14:59;;;;;;;0.38;0.32;;;;;;;;;;6124190;23;20512;-74
2022/11/15 08:17:31;;;;;;;0.70;0.70;;;;;;;;;;6123201;23;20133;-74
2022/11/15 08:20:00;;;;;;;0.25;0.25;;;;;;;;;;6122899;23;20022;-74
2022/11/15 08:22:28;;;;;;;2.55;0.77;;;;;;;;;;6123087;23;20026;-74
2022/11/15 08:24:57;;;;;;;0.52;0.52;;;;;;;;;;6123923;23;20018;-74
2022/11/15 08:27:25;;;;;;;1.55;0.95;;;;;;;;;;6123664;23;20017;-74
2022/11/15 08:29:53;;;;;;;0.43;0.43;;;;;;;;;;6122404;23;20073;-74
2022/11/15 08:32:28;;;;;;;0.20;0.20;;;;;;;;;;6116963;23;20029;-74
2022/11/15 08:34:56;;;;;;;0.40;0.40;;;;;;;;;;6121032;23;20032;-74
2022/11/15 08:37:24;;;;;;;4.05;0.90;;;;;;;;;;6121292;23;20022;-74
2022/11/15 08:39:53;;;;;;;1.65;0.77;;;;;;;;;;6120258;23;20427;-74
2022/11/15 08:42:21;;;;;;;3.38;1.08;;;;;;;;;;6119951;23;20464;-74
2022/11/15 08:44:50;;;;;;;1.38;0.95;;;;;;;;;;6117873;23;20022;-74
2022/11/15 08:47:18;;;;;;;1.33;1.08;;;;;;;;;;6119765;23;20032;-74
2022/11/15 08:49:48;;;;;;;0.50;0.47;;;;;;;;;;6121372;23;20028;-74
2022/11/15 08:52:16;;;;;;;1.40;0.68;;;;;;;;;;6122852;23;20018;-74
2022/11/15 08:54:44;;;;;;;0.75;0.70;;;;;;;;;;6123681;23;20022;-74
2022/11/15 08:57:13;;;;;;;0.47;0.32;;;;;;;;;;6122291;23;20312;-74
2022/11/15 08:59:41;;;;;;;9.88;1.02;;;;;;;;;;6123113;23;20347;-75
2022/11/15 09:02:13;;;;;;;0.50;0.40;;;;;;;;;;6122200;23;20101;-75
2022/11/15 09:04:42;;;;;;;0.63;0.63;;;;;;;;;;6123883;23;20018;-75
2022/11/15 09:07:12;;;;;;;0.45;0.45;;;;;;;;;;6122685;23;20026;-74
2022/11/15 09:09:41;;;;;;;7.03;1.30;;;;;;;;;;6122920;23;20055;-75
2022/11/15 09:12:10;;;;;;;3.00;0.95;;;;;;;;;;6121902;23;20068;-75
2022/11/15 09:14:38;;;;;;;1.55;0.80;;;;;;;;;;6123101;23;20022;-75
2022/11/15 09:17:09;;;;;;;1.48;0.82;;;;;;;;;;6122967;23;20117;-75
2022/11/15 09:19:37;;;;;;;2.47;0.73;;;;;;;;;;6122097;23;20440;-74
2022/11/15 09:22:07;;;;;;;1.60;1.15;;;;;;;;;;6124539;23;20033;-75
2022/11/15 09:24:37;;;;;;;0.75;0.68;;;;;;;;;;6124991;23;20053;-75
2022/11/15 09:27:05;;;;;;;0.75;0.75;;;;;;;;;;6125203;23;20093;-76
2022/11/15 09:29:34;;;;;;;1.70;0.95;;;;;;;;;;6124662;23;20030;-75
2022/11/15 09:32:02;;;;;;;0.45;0.45;;;;;;;;;;6123455;23;20033;-75
2022/11/15 09:34:31;;;;;;;1.58;0.70;;;;;;;;;;6123727;23;20030;-75
2022/11/15 09:36:59;;;;;;;0.52;0.52;;;;;;;;;;6124324;23;20462;-75
2022/11/15 09:39:28;;;;;;;1.48;0.90;;;;;;;;;;6124678;23;20025;-75
2022/11/15 09:42:17;;;;;;;0.52;0.50;;;;;;;;;;6125172;23;20033;-75
2022/11/15 09:44:54;;;;;;;1.63;0.50;;;;;;;;;;6122699;23;20081;-75
2022/11/15 09:47:40;;;;;;;1.45;0.50;;;;;;;;;;6123033;23;20034;-76
2022/11/15 09:50:11;;;;;;;0.20;0.20;;;;;;;;;;6123060;23;20491;-75
2022/11/15 09:52:41;;;;;;;0.43;0.43;;;;;;;;;;6123447;23;20042;-76
2022/11/15 09:55:10;;;;;;;1.02;1.00;;;;;;;;;;6125535;23;20018;-76
2022/11/15 09:57:43;;;;;;;1.02;0.22;;;;;;;;;;6122914;23;20105;-76
2022/11/15 10:00:14;;;;;;;0.28;0.28;;;;;;;;;;6124440;23;20122;-75
2022/11/15 10:03:11;;;;;;;0.40;0.40;;;;;;;;;;6075675;23;20022;-76
2022/11/15 10:05:40;;;;;;;0.93;0.43;;;;;;;;;;6125336;23;20026;-76
2022/11/15 10:08:15;;;;;;;0.30;0.30;;;;;;;;;;6122989;23;20021;-77
2022/11/15 10:10:45;;;;;;;0.95;0.77;;;;;;;;;;6123014;23;20467;-76
2022/11/15 10:13:18;;;;;;;1.83;0.60;;;;;;;;;;6124167;23;20455;-76
2022/11/15 10:15:48;;;;;;;0.68;0.68;;;;;;;;;;6125470;23;20028;-76
2022/11/15 10:18:18;;;;;;;3.17;1.23;;;;;;;;;;6123687;23;20385;-76
2022/11/15 10:20:49;;;;;;;0.75;0.65;;;;;;;;;;6123528;23;20022;-77
2022/11/15 10:23:18;;;;;;;6.68;1.17;;;;;;;;;;6124124;23;20057;-77
2022/11/15 10:25:47;;;;;;;0.80;0.80;;;;;;;;;;6125131;23;20403;-77
2022/11/15 10:28:19;;;;;;;0.50;0.50;;;;;;;;;;6123171;23;20022;-76
2022/11/15 10:30:48;;;;;;;1.33;0.68;;;;;;;;;;6122636;23;20640;-78
2022/11/15 10:33:25;;;;;;;0.38;0.38;;;;;;;;;;6123734;23;20022;-77
2022/11/15 10:36:08;;;;;;;2.45;0.98;;;;;;;;;;6124977;23;20133;-76
2022/11/15 10:38:52;;;;;;;0.90;0.80;;;;;;;;;;6122593;23;20022;-77
2022/11/15 10:41:21;;;;;;;0.35;0.35;;;;;;;;;;6124116;23;20049;-77
2022/11/15 10:44:03;;;;;;;1.35;0.80;;;;;;;;;;6124514;23;20033;-77
2022/11/15 10:46:32;;;;;;;0.50;0.50;;;;;;;;;;6125302;23;20104;-79
2022/11/15 10:49:16;;;;;;;0.40;0.40;;;;;;;;;;6123520;23;20025;-80
2022/11/15 10:51:47;;;;;;;0.22;0.22;;;;;;;;;;6124991;23;20026;-79
2022/11/15 10:54:18;;;;;;;0.65;0.40;;;;;;;;;;6125564;23;20029;-79
2022/11/15 10:56:50;;;;;;;0.40;0.40;;;;;;;;;;6124610;23;20026;-77
2022/11/15 10:59:26;;;;;;;0.50;0.30;;;;;;;;;;6124341;23;20057;-78
2022/11/15 11:01:54;;;;;;;0.45;0.43;;;;;;;;;;6124656;23;20029;-77
2022/11/15 11:04:23;;;;;;;1.38;0.50;;;;;;;;;;6124545;23;20455;-80
2022/11/15 11:06:52;;;;;;;1.38;0.40;;;;;;;;;;6124690;23;20029;-79
2022/11/15 11:09:32;;;;;;;2.92;0.55;;;;;;;;;;6122458;23;20025;-78
2022/11/15 11:12:01;;;;;;;1.55;0.28;;;;;;;;;;6124327;23;20034;-77
2022/11/15 11:14:32;;;;;;;0.60;0.50;;;;;;;;;;6123364;23;20478;-78
2022/11/15 11:17:04;;;;;;;0.63;0.63;;;;;;;;;;6124988;23;20347;-78
2022/11/15 11:19:40;;;;;;;1.10;0.93;;;;;;;;;;6122490;23;20077;-79
2022/11/15 11:22:12;;;;;;;1.38;0.40;;;;;;;;;;6122285;23;20021;-78
2022/11/15 11:24:44;;;;;;;0.75;0.50;;;;;;;;;;6123646;23;20026;-78
2022/11/15 11:27:21;;;;;;;0.30;0.30;;;;;;;;;;6122928;23;20443;-79
2022/11/15 11:29:57;;;;;;;1.00;0.75;;;;;;;;;;6121501;23;20029;-78
2022/11/15 11:32:32;;;;;;;0.90;0.52;;;;;;;;;;6122963;23;20347;-80
2022/11/15 11:35:06;;;;;;;2.13;0.25;;;;;;;;;;6122552;23;20109;-79
2022/11/15 11:37:38;;;;;;;0.95;0.68;;;;;;;;;;6124181;23;20022;-81
2022/11/15 11:40:15;;;;;;;1.40;0.73;;;;;;;;;;6122276;23;20026;-81
2022/11/15 11:42:49;;;;;;;1.75;0.60;;;;;;;;;;6123086;23;20490;-80
2022/11/15 11:45:20;;;;;;;0.75;0.55;;;;;;;;;;6124251;23;20034;-76
2022/11/15 11:47:50;;;;;;;0.43;0.43;;;;;;;;;;6124040;23;20097;-79
2022/11/15 11:50:20;;;;;;;0.82;0.35;;;;;;;;;;6121599;23;20061;-78
2022/11/15 11:52:55;;;;;;;0.70;0.55;;;;;;;;;;6123814;23;20046;-79
2022/11/15 11:55:36;;;;;;;1.13;0.52;;;;;;;;;;6123828;23;20022;-78
2022/11/15 11:58:07;;;;;;;1.10;0.50;;;;;;;;;;6124103;23;20022;-78
2022/11/15 12:00:39;;;;;;;1.27;0.50;;;;;;;;;;6123062;23;20032;-77
2022/11/15 12:03:10;;;;;;;0.70;0.52;;;;;;;;;;6122560;23;20029;-78
2022/11/15 12:05:41;;;;;;;0.98;0.50;;;;;;;;;;6123671;23;20113;-81
2022/11/15 12:08:25;;;;;;;2.33;0.70;;;;;;;;;;6123757;23;20058;-80
2022/11/15 12:10:56;;;;;;;8.60;0.90;;;;;;;;;;6121954;23;20478;-77
2022/11/15 12:13:27;;;;;;;3.58;0.80;;;;;;;;;;6123493;23;20022;-76
2022/11/15 12:15:59;;;;;;;0.63;0.55;;;;;;;;;;6121440;23;20141;-79
2022/11/15 12:18:32;;;;;;;0.77;0.38;;;;;;;;;;6123076;23;20029;-79
2022/11/15 12:21:03;;;;;;;0.82;0.60;;;;;;;;;;6122120;23;20384;-78
2022/11/15 12:23:34;;;;;;;2.40;0.70;;;;;;;;;;6123995;23;20029;-78
2022/11/15 12:26:03;;;;;;;0.57;0.32;;;;;;;;;;6123425;23;20022;-80
2022/11/15 12:28:35;;;;;;;2.35;0.55;;;;;;;;;;6122087;23;20101;-78
2022/11/15 12:31:07;;;;;;;1.90;0.60;;;;;;;;;;6122676;23;20079;-77
2022/11/15 12:33:38;;;;;;;3.45;1.00;;;;;;;;;;6123268;23;20114;-77
2022/11/15 12:36:07;;;;;;;1.73;0.80;;;;;;;;;;6122118;23;20463;-79
2022/11/15 12:38:53;;;;;;;3.25;0.90;;;;;;;;;;6122651;23;20034;-79
2022/11/15 12:41:22;;;;;;;1.48;0.80;;;;;;;;;;6121687;23;20034;-79
2022/11/15 12:43:51;;;;;;;2.58;0.70;;;;;;;;;;6121777;23;20097;-78
2022/11/15 12:46:35;;;;;;;1.27;0.70;;;;;;;;;;6122320;23;20018;-80
2022/11/15 12:49:04;;;;;;;0.95;0.75;;;;;;;;;;6121607;23;20053;-81
2022/11/15 12:52:08;;;;;;;0.55;0.55;;;;;;;;;;6121644;23;20041;-80
2022/11/15 12:55:07;;;;;;;0.82;0.68;;;;;;;;;;6123884;23;20032;-83
2022/11/15 12:57:39;;;;;;;4.07;0.88;;;;;;;;;;6124492;23;20343;-78
2022/11/15 13:00:27;;;;;;;2.30;0.65;;;;;;;;;;6124115;23;20371;-79
2022/11/15 13:03:14;;;;;;;1.17;0.77;;;;;;;;;;6060101;23;20097;-80
2022/11/15 13:05:54;;;;;;;3.00;1.02;;;;;;;;;;6125351;23;20106;-77
2022/11/15 13:08:36;;;;;;;2.22;0.68;;;;;;;;;;6125896;23;20029;-80
2022/11/15 13:11:20;;;;;;;3.28;0.70;;;;;;;;;;6124278;23;20022;-79
2022/11/15 13:13:49;;;;;;;0.47;0.47;;;;;;;;;;6124993;23;20018;-81
2022/11/15 13:16:21;;;;;;;1.85;0.80;;;;;;;;;;6124156;23;20025;-80
2022/11/15 13:18:56;;;;;;;1.38;0.70;;;;;;;;;;6124697;23;20030;-81
2022/11/15 13:24:15;;;;;;;0.70;0.55;;;;;;;;;;6124903;23;20074;-81
2022/11/15 13:26:44;;;;;;;1.67;1.02;;;;;;;;;;6124750;23;20478;-81
2022/11/15 13:29:19;;;;;;;1.83;1.05;;;;;;;;;;6123796;23;20026;-83
2022/11/15 13:31:48;;;;;;;0.85;0.52;;;;;;;;;;6124227;23;20033;-81
2022/11/15 13:34:25;;;;;;;1.00;0.65;;;;;;;;;;6125127;23;20061;-83
2022/11/15 13:37:28;;;;;;;1.00;0.70;;;;;;;;;;6124668;23;20034;-83
2022/11/15 13:39:57;;;;;;;1.05;0.80;;;;;;;;;;6124005;23;20032;-82
2022/11/15 13:42:30;;;;;;;0.95;0.75;;;;;;;;;;6122826;23;20018;-83
2022/11/15 13:44:59;;;;;;;1.10;0.30;;;;;;;;;;6124371;23;20033;-82
2022/11/15 13:47:28;;;;;;;2.72;0.80;;;;;;;;;;6125666;23;20105;-81
2022/11/15 13:50:00;;;;;;;1.48;0.70;;;;;;;;;;6124499;23;20025;-81
2022/11/15 13:52:33;;;;;;;1.30;0.82;;;;;;;;;;6122398;23;20030;-83
2022/11/15 13:55:03;;;;;;;1.45;0.88;;;;;;;;;;6125138;23;20176;-82
2022/11/15 13:57:33;;;;;;;0.82;0.45;;;;;;;;;;6124463;23;20356;-78
2022/11/15 14:00:03;;;;;;;0.98;0.82;;;;;;;;;;6124632;23;20021;-83
2022/11/15 14:02:32;;;;;;;7.30;1.38;;;;;;;;;;6124417;23;20018;-84
2022/11/15 14:05:06;;;;;;;0.90;0.60;;;;;;;;;;6123264;23;20028;-78
2022/11/15 14:07:36;;;;;;;1.60;0.70;;;;;;;;;;6124691;23;20396;-81
2022/11/15 14:10:26;;;;;;;0.80;0.43;;;;;;;;;;6123974;23;20467;-78
2022/11/15 14:12:55;;;;;;;1.48;0.70;;;;;;;;;;6124279;23;20032;-82
2022/11/15 14:15:29;;;;;;;2.00;0.45;;;;;;;;;;6124429;23;20498;-82
2022/11/15 14:17:57;;;;;;;0.50;0.50;;;;;;;;;;6123661;23;20076;-81
2022/11/15 14:20:32;;;;;;;1.95;0.63;;;;;;;;;;6124986;23;20022;-83
2022/11/15 14:23:00;;;;;;;;;;;;;;;;;;6099325;23;20026;-81
2022/11/15 14:25:29;;;;;;;2.00;1.02;;;;;;;;;;6113230;23;19916;-82
2022/11/15 14:28:12;;;;;;;1.83;0.57;;;;;;;;;;6125111;23;20025;-82
2022/11/15 14:30:40;;;;;;;1.48;0.70;;;;;;;;;;6122518;23;20081;-84
2022/11/15 14:33:23;;;;;;;0.52;0.50;;;;;;;;;;6124458;23;20482;-84
2022/11/15 14:35:54;;;;;;;2.30;0.80;;;;;;;;;;6125621;23;20024;-82
2022/11/15 14:38:22;;;;;;;1.55;0.98;;;;;;;;;;6126562;23;20022;-81
2022/11/15 14:40:51;;;;;;;3.30;0.55;;;;;;;;;;6125562;23;20030;-81
2022/11/15 14:43:19;;;;;;;2.08;0.93;;;;;;;;;;6126285;23;20022;-82
2022/11/15 14:45:48;;;;;;;1.27;1.08;;;;;;;;;;6129827;23;20333;-80
2022/11/15 14:48:16;;;;;;;0.88;0.57;;;;;;;;;;6130833;23;20018;-81
2022/11/15 14:50:45;;;;;;;1.17;0.60;;;;;;;;;;6131755;23;20049;-80
2022/11/15 14:53:16;;;;;;;2.95;1.08;;;;;;;;;;6133798;23;20057;-80
2022/11/15 14:55:45;;;;;;;0.88;0.70;;;;;;;;;;6130244;23;20018;-80
2022/11/15 14:58:13;;;;;;;4.28;0.90;;;;;;;;;;6127693;23;20058;-80
2022/11/15 15:00:42;;;;;;;2.85;0.93;;;;;;;;;;6123541;23;20032;-78
2022/11/15 15:03:11;;;;;;;2.15;0.90;;;;;;;;;;6123491;23;20029;-82
2022/11/15 15:05:41;;;;;;;3.20;1.38;;;;;;;;;;6125135;23;20018;-82
2022/11/15 15:08:10;;;;;;;1.45;0.77;;;;;;;;;;6123672;23;20029;-82
2022/11/15 15:10:42;;;;;;;1.75;0.80;;;;;;;;;;6123082;23;20349;-80
2022/11/15 15:13:16;;;;;;;1.67;1.00;;;;;;;;;;6123203;23;20037;-82
2022/11/15 15:15:45;;;;;;;5.43;1.33;;;;;;;;;;6124213;23;20459;-82
2022/11/15 15:18:15;;;;;;;2.03;1.30;;;;;;;;;;6123176;23;20022;-81
2022/11/15 15:20:45;;;;;;;1.13;0.50;;;;;;;;;;6122424;23;20072;-79
2022/11/15 15:23:17;;;;;;;1.77;1.52;;;;;;;;;;6123092;23;20021;-79
2022/11/15 15:25:48;;;;;;;2.03;0.50;;;;;;;;;;6123936;23;20069;-82
2022/11/15 15:28:17;;;;;;;1.27;1.00;;;;;;;;;;6123776;23;20105;-80